createdAt,value
2019-03-15T00:02:21.628Z,5.77
2019-03-15T00:05:26.774Z,6.60
2019-03-15T00:08:31.927Z,6.47
2019-03-15T00:11:37.033Z,9.57
2019-03-15T00:14:42.127Z,7.97
2019-03-15T00:17:47.200Z,9.53
2019-03-15T00:20:52.339Z,5.83
2019-03-15T00:23:57.494Z,6.37
2019-03-15T00:27:02.687Z,6.30
2019-03-15T00:30:08.629Z,10.20
2019-03-15T00:33:13.758Z,7.43
2019-03-15T00:36:18.949Z,9.23
2019-03-15T00:39:24.106Z,12.77
2019-03-15T00:42:29.265Z,7.23
2019-03-15T00:45:34.371Z,6.30
2019-03-15T00:48:39.445Z,4.87
2019-03-15T00:51:44.619Z,8.50
2019-03-15T00:54:49.764Z,7.80
2019-03-15T00:57:54.976Z,7.03
2019-03-15T01:01:00.078Z,8.73
2019-03-15T01:04:05.257Z,7.17
2019-03-15T01:07:10.366Z,10.20
2019-03-15T01:10:15.501Z,9.03
2019-03-15T01:13:20.703Z,8.80
2019-03-15T01:16:25.853Z,9.30
2019-03-15T01:19:31.021Z,9.23
2019-03-15T01:22:37.164Z,7.30
2019-03-15T01:25:42.348Z,6.47
2019-03-15T01:28:47.632Z,6.37
2019-03-15T01:31:52.756Z,10.10
2019-03-15T01:34:57.906Z,8.33
2019-03-15T01:38:03.012Z,6.90
2019-03-15T01:41:09.192Z,6.93
2019-03-15T01:44:14.364Z,9.87
2019-03-15T01:47:19.467Z,10.87
2019-03-15T01:50:24.658Z,12.27
2019-03-15T01:53:29.904Z,8.53
2019-03-15T01:56:35.173Z,10.43
2019-03-15T01:59:40.274Z,9.33
2019-03-15T02:02:45.474Z,12.13
2019-03-15T02:05:50.552Z,9.40
2019-03-15T02:08:55.652Z,16.27
2019-03-15T02:12:00.786Z,8.90
2019-03-15T02:15:06.320Z,9.50
2019-03-15T02:18:11.427Z,13.13
2019-03-15T02:21:16.550Z,9.23
2019-03-15T02:24:21.719Z,8.17
2019-03-15T02:27:26.935Z,13.80
2019-03-15T02:30:32.108Z,10.53
2019-03-15T02:33:37.380Z,11.80
2019-03-15T02:36:42.661Z,9.00
2019-03-15T02:39:47.798Z,12.83
2019-03-15T02:42:53.301Z,12.23
2019-03-15T02:46:00.667Z,8.80
2019-03-15T02:49:06.161Z,10.70
2019-03-15T02:52:11.348Z,9.73
2019-03-15T02:55:16.468Z,9.90
2019-03-15T02:58:21.575Z,7.87
2019-03-15T03:01:26.694Z,8.73
2019-03-15T03:04:31.846Z,10.40
2019-03-15T03:07:36.958Z,8.90
2019-03-15T03:10:42.069Z,10.47
2019-03-15T03:13:47.210Z,8.47
2019-03-15T03:16:52.371Z,8.67
2019-03-15T03:19:57.502Z,9.77
2019-03-15T03:23:04.005Z,10.37
2019-03-15T03:26:09.273Z,10.50
2019-03-15T03:29:14.417Z,12.33
2019-03-15T03:32:19.506Z,15.07
2019-03-15T03:35:25.858Z,8.70
2019-03-15T03:38:31.071Z,10.63
2019-03-15T03:41:36.203Z,7.73
2019-03-15T03:44:41.359Z,9.83
2019-03-15T03:47:46.412Z,13.27
2019-03-15T03:50:51.561Z,7.53
2019-03-15T03:53:56.714Z,10.00
2019-03-15T03:57:01.869Z,13.90
2019-03-15T04:00:07.960Z,13.27
2019-03-15T04:03:13.051Z,10.03
2019-03-15T04:06:18.213Z,8.57
2019-03-15T04:09:23.423Z,8.37
2019-03-15T04:12:29.562Z,7.63
2019-03-15T04:15:34.688Z,10.87
2019-03-15T04:18:39.801Z,8.90
2019-03-15T04:21:44.901Z,6.70
2019-03-15T04:24:49.993Z,8.23
2019-03-15T04:27:55.208Z,8.70
2019-03-15T04:31:00.345Z,9.83
2019-03-15T04:34:05.481Z,9.93
2019-03-15T04:37:10.689Z,11.90
2019-03-15T04:40:15.833Z,8.20
2019-03-15T04:43:20.934Z,9.17
2019-03-15T04:46:26.023Z,8.33
2019-03-15T04:49:31.208Z,7.80
2019-03-15T04:52:36.392Z,8.57
2019-03-15T04:55:41.519Z,12.77
2019-03-15T04:58:46.762Z,8.93
2019-03-15T05:01:51.892Z,8.43
2019-03-15T05:05:00.201Z,14.23
2019-03-15T05:08:03.888Z,8.90
2019-03-15T05:11:09.061Z,8.97
2019-03-15T05:14:14.166Z,11.50
2019-03-15T05:17:19.291Z,12.73
2019-03-15T05:20:24.371Z,5.87
2019-03-15T05:23:29.486Z,8.20
2019-03-15T05:26:34.641Z,10.93
2019-03-15T05:29:39.803Z,13.07
2019-03-15T05:32:44.916Z,10.90
2019-03-15T05:35:50.025Z,8.80
2019-03-15T05:38:55.221Z,10.63
2019-03-15T05:42:00.403Z,13.27
2019-03-15T05:45:06.158Z,11.97
2019-03-15T05:48:11.331Z,9.57
2019-03-15T05:51:16.458Z,28.17
2019-03-15T05:54:21.619Z,10.33
2019-03-15T05:57:26.686Z,12.97
2019-03-15T06:00:31.833Z,12.00
2019-03-15T06:03:47.887Z,10.43
2019-03-15T06:06:44.266Z,13.90
2019-03-15T06:09:49.333Z,8.07
2019-03-15T06:12:54.491Z,9.33
2019-03-15T06:15:59.649Z,11.90
2019-03-15T06:19:04.753Z,9.70
2019-03-15T06:22:09.883Z,10.20
2019-03-15T06:25:15.062Z,14.67
2019-03-15T06:28:21.284Z,7.50
2019-03-15T06:31:26.477Z,12.73
2019-03-15T06:34:31.630Z,9.33
2019-03-15T06:37:36.772Z,12.27
2019-03-15T06:40:41.867Z,8.77
2019-03-15T06:43:47.024Z,8.23
2019-03-15T06:46:52.126Z,9.60
2019-03-15T06:49:57.288Z,12.07
2019-03-15T06:53:02.416Z,8.17
2019-03-15T06:56:07.578Z,11.13
2019-03-15T06:59:12.697Z,12.20
2019-03-15T07:02:17.836Z,12.97
2019-03-15T07:05:22.944Z,11.80
2019-03-15T07:08:28.100Z,12.27
2019-03-15T07:11:33.240Z,8.50
2019-03-15T07:14:38.320Z,9.43
2019-03-15T07:17:43.429Z,16.13
2019-03-15T07:20:48.584Z,11.93
2019-03-15T07:23:53.703Z,11.70
2019-03-15T07:27:11.793Z,11.60
2019-03-15T07:30:05.907Z,8.33
2019-03-15T07:33:11.010Z,12.17
2019-03-15T07:36:16.127Z,12.33
2019-03-15T07:39:21.251Z,5.87
2019-03-15T07:42:26.330Z,9.13
2019-03-15T07:45:31.556Z,6.83
2019-03-15T07:48:36.737Z,11.50
2019-03-15T07:51:41.869Z,10.67
2019-03-15T07:54:47.029Z,11.13
2019-03-15T07:57:52.187Z,7.50
2019-03-15T08:00:57.277Z,6.03
2019-03-15T08:04:15.848Z,6.30
2019-03-15T08:07:09.158Z,9.17
2019-03-15T08:10:14.498Z,7.60
2019-03-15T08:13:19.596Z,5.30
2019-03-15T08:16:25.820Z,6.33
2019-03-15T08:19:30.934Z,8.63
2019-03-15T08:22:36.078Z,9.40
2019-03-15T08:25:41.151Z,7.27
2019-03-15T08:28:46.254Z,6.07
2019-03-15T08:31:51.341Z,10.30
2019-03-15T08:34:56.490Z,7.67
2019-03-15T08:38:01.596Z,8.50
2019-03-15T08:41:06.750Z,8.23
2019-03-15T08:44:11.879Z,3.33
2019-03-15T08:47:17.047Z,9.77
2019-03-15T08:50:24.501Z,6.90
2019-03-15T08:53:28.987Z,4.57
2019-03-15T08:56:34.096Z,7.10
2019-03-15T08:59:52.455Z,4.10
2019-03-15T09:02:46.096Z,4.50
2019-03-15T09:05:51.265Z,3.70
2019-03-15T09:08:56.438Z,5.70
2019-03-15T09:12:01.654Z,3.90
2019-03-15T09:15:06.869Z,4.40
2019-03-15T09:18:11.982Z,15.97
2019-03-15T09:21:17.195Z,8.23
2019-03-15T09:24:22.330Z,3.53
2019-03-15T09:27:27.428Z,6.00
2019-03-15T09:30:32.600Z,3.80
2019-03-15T09:33:37.703Z,4.60
2019-03-15T09:36:50.098Z,5.77
2019-03-15T09:39:49.662Z,3.63
2019-03-15T09:42:54.789Z,4.33
2019-03-15T09:45:59.925Z,4.07
2019-03-15T09:49:05.026Z,3.37
2019-03-15T09:52:10.145Z,5.93
2019-03-15T09:55:15.234Z,7.83
2019-03-15T09:58:20.427Z,4.73
2019-03-15T10:01:34.714Z,1.70
2019-03-15T10:04:35.783Z,7.17
2019-03-15T10:07:42.939Z,2.20
2019-03-15T10:10:48.944Z,2.50
2019-03-15T10:13:53.372Z,1.77
2019-03-15T10:16:58.448Z,1.93
2019-03-15T10:20:03.584Z,1.30
2019-03-15T10:23:08.704Z,2.17
2019-03-15T10:26:15.118Z,1.90
2019-03-15T10:29:20.484Z,2.90
2019-03-15T10:32:25.647Z,1.70
2019-03-15T10:35:30.819Z,0.80
2019-03-15T10:38:35.923Z,1.23
2019-03-15T10:41:41.143Z,3.23
2019-03-15T10:44:46.212Z,1.50
2019-03-15T10:47:51.379Z,1.33
2019-03-15T10:50:56.501Z,1.83
2019-03-15T10:54:01.685Z,1.40
2019-03-15T10:57:06.807Z,1.10
2019-03-15T11:00:13.551Z,1.90
2019-03-15T11:03:18.674Z,4.93
2019-03-15T11:06:23.841Z,2.30
2019-03-15T11:09:29.120Z,1.87
2019-03-15T11:12:34.397Z,1.57
2019-03-15T11:15:39.608Z,0.73
2019-03-15T11:18:44.812Z,0.70
2019-03-15T11:21:49.978Z,0.93
2019-03-15T11:24:55.140Z,1.00
2019-03-15T11:28:00.299Z,1.00
2019-03-15T11:31:05.416Z,1.53
2019-03-15T11:34:10.516Z,1.23
2019-03-15T11:37:16.009Z,0.80
2019-03-15T11:40:21.169Z,1.00
2019-03-15T11:43:26.387Z,0.80
2019-03-15T11:46:31.697Z,1.80
2019-03-15T11:49:36.850Z,1.03
2019-03-15T11:52:42.002Z,1.40
2019-03-15T11:55:47.246Z,1.00
2019-03-15T11:58:52.437Z,1.30
2019-03-15T12:02:04.036Z,1.20
2019-03-15T12:05:04.629Z,1.57
2019-03-15T12:08:09.752Z,1.53
2019-03-15T12:11:14.940Z,4.70
2019-03-15T12:14:20.090Z,0.80
2019-03-15T12:17:25.209Z,2.00
2019-03-15T12:20:30.509Z,1.10
2019-03-15T12:23:35.620Z,2.47
2019-03-15T12:26:41.033Z,0.90
2019-03-15T12:29:46.192Z,1.33
2019-03-15T12:32:51.467Z,3.10
2019-03-15T12:35:56.641Z,1.20
2019-03-15T12:39:01.792Z,0.77
2019-03-15T12:42:08.313Z,2.60
2019-03-15T12:45:13.602Z,13.33
2019-03-15T12:48:18.759Z,2.23
2019-03-15T12:51:31.947Z,1.73
2019-03-15T12:54:30.788Z,0.80
2019-03-15T12:57:35.939Z,1.10
2019-03-15T13:00:41.073Z,0.77
2019-03-15T13:03:46.190Z,1.60
2019-03-15T13:06:51.384Z,2.10
2019-03-15T13:09:56.548Z,1.97
2019-03-15T13:13:01.701Z,1.87
2019-03-15T13:16:06.802Z,1.07
2019-03-15T13:19:11.892Z,1.07
2019-03-15T13:22:17.029Z,1.27
2019-03-15T13:25:22.113Z,0.70
2019-03-15T13:28:27.229Z,2.03
2019-03-15T13:31:32.501Z,1.10
2019-03-15T13:34:37.653Z,0.60
2019-03-15T13:37:43.457Z,0.67
2019-03-15T13:40:48.725Z,0.43
2019-03-15T13:43:53.893Z,1.17
2019-03-15T13:46:59.017Z,0.87
2019-03-15T13:50:05.554Z,1.17
2019-03-15T13:53:10.693Z,2.10
2019-03-15T13:56:15.796Z,0.73
2019-03-15T13:59:20.864Z,1.13
2019-03-15T14:02:26.202Z,1.23
2019-03-15T14:05:31.419Z,2.93
2019-03-15T14:08:36.659Z,0.50
2019-03-15T14:11:41.772Z,1.13
2019-03-15T14:14:46.968Z,1.17
2019-03-15T14:17:53.115Z,3.00
2019-03-15T14:20:58.248Z,4.80
2019-03-15T14:24:03.564Z,7.40
2019-03-15T14:27:08.864Z,0.83
2019-03-15T14:30:14.116Z,1.33
2019-03-15T14:33:19.254Z,1.40
2019-03-15T14:36:24.399Z,0.90
2019-03-15T14:39:29.725Z,1.10
2019-03-15T14:42:35.008Z,0.63
2019-03-15T14:45:40.192Z,0.70
2019-03-15T14:48:45.276Z,0.73
2019-03-15T14:51:50.420Z,1.60
2019-03-15T14:54:55.526Z,0.80
2019-03-15T14:58:01.733Z,3.90
2019-03-15T15:01:06.833Z,1.07
2019-03-15T15:04:11.969Z,1.10
2019-03-15T15:07:17.080Z,0.60
2019-03-15T15:10:22.280Z,1.17
2019-03-15T15:13:27.373Z,1.70
2019-03-15T15:16:32.610Z,0.70
2019-03-15T15:19:37.781Z,1.70
2019-03-15T15:22:44.036Z,1.13
2019-03-15T15:25:49.190Z,0.40
2019-03-15T15:28:55.396Z,0.40
2019-03-15T15:32:00.575Z,0.70
2019-03-15T15:35:06.436Z,1.47
2019-03-15T15:38:11.635Z,1.03
2019-03-15T15:41:16.851Z,0.30
2019-03-15T15:44:22.869Z,0.40
2019-03-15T15:47:27.994Z,0.97
2019-03-15T15:50:33.150Z,0.70
2019-03-15T15:53:38.296Z,0.30
2019-03-15T15:56:43.412Z,0.23
2019-03-15T15:59:48.573Z,1.83
2019-03-15T16:02:53.718Z,0.43
2019-03-15T16:05:58.830Z,0.50
2019-03-15T16:09:04.454Z,0.57
2019-03-15T16:12:09.692Z,0.40
2019-03-15T16:15:14.955Z,0.67
2019-03-15T16:18:20.109Z,0.80
2019-03-15T16:21:25.253Z,0.40
2019-03-15T16:24:30.402Z,1.30
2019-03-15T16:27:35.571Z,2.57
2019-03-15T16:30:40.764Z,0.60
2019-03-15T16:33:47.061Z,1.10
2019-03-15T16:36:52.239Z,3.73
2019-03-15T16:39:57.393Z,2.33
2019-03-15T16:43:02.531Z,4.83
2019-03-15T16:46:07.655Z,2.60
2019-03-15T16:49:12.814Z,2.27
2019-03-15T16:52:18.034Z,1.33
2019-03-15T16:55:23.164Z,3.13
2019-03-15T16:58:28.361Z,0.33
2019-03-15T17:01:33.570Z,2.13
2019-03-15T17:04:38.999Z,0.70
2019-03-15T17:07:44.317Z,1.33
2019-03-15T17:10:49.436Z,1.40
2019-03-15T17:13:54.612Z,0.70
2019-03-15T17:16:59.745Z,2.40
2019-03-15T17:20:05.364Z,1.70
2019-03-15T17:23:10.457Z,3.83
2019-03-15T17:26:15.638Z,11.53
2019-03-15T17:29:20.780Z,3.00
2019-03-15T17:32:25.943Z,1.60
2019-03-15T17:35:31.087Z,0.63
2019-03-15T17:38:36.228Z,0.80
2019-03-15T17:41:41.415Z,0.80
2019-03-15T17:44:46.527Z,0.97
2019-03-15T17:47:52.716Z,1.43
2019-03-15T17:50:57.873Z,0.80
2019-03-15T17:54:03.118Z,0.70
2019-03-15T17:57:08.230Z,0.60
2019-03-15T18:00:17.521Z,1.77
2019-03-15T18:03:23.218Z,1.80
2019-03-15T18:06:28.405Z,0.90
2019-03-15T18:09:33.640Z,0.63
2019-03-15T18:12:38.786Z,0.70
2019-03-15T18:15:43.978Z,0.70
2019-03-15T18:18:49.159Z,0.73
2019-03-15T18:21:54.316Z,0.73
2019-03-15T18:24:59.580Z,2.17
2019-03-15T18:28:04.862Z,1.27
2019-03-15T18:31:09.985Z,2.37
2019-03-15T18:34:15.139Z,5.33
2019-03-15T18:37:20.294Z,2.10
2019-03-15T18:40:25.550Z,2.50
2019-03-15T18:43:30.720Z,0.80
2019-03-15T18:46:36.061Z,1.63
2019-03-15T18:49:42.374Z,2.60
2019-03-15T18:52:47.513Z,1.67
2019-03-15T18:55:52.645Z,0.90
2019-03-15T18:58:57.860Z,1.20
2019-03-15T19:02:02.993Z,1.47
2019-03-15T19:05:08.784Z,0.77
2019-03-15T19:08:15.020Z,0.80
2019-03-15T19:11:21.050Z,2.93
2019-03-15T19:14:26.637Z,1.40
2019-03-15T19:17:31.860Z,0.90
2019-03-15T19:20:37.090Z,1.17
2019-03-15T19:23:42.141Z,1.00
2019-03-15T19:26:47.323Z,0.73
2019-03-15T19:29:53.885Z,0.80
2019-03-15T19:32:59.359Z,1.43
2019-03-15T19:36:04.569Z,2.23
2019-03-15T19:39:09.750Z,2.05
2019-03-15T19:42:14.875Z,1.10
2019-03-15T19:45:20.328Z,1.10
2019-03-15T19:48:25.581Z,0.77
2019-03-15T19:51:30.657Z,1.90
2019-03-15T19:54:35.827Z,3.23
2019-03-15T19:57:41.136Z,0.87
2019-03-15T20:00:46.242Z,0.53
2019-03-15T20:03:51.384Z,0.90
2019-03-15T20:06:56.489Z,0.73
2019-03-15T20:10:01.636Z,1.03
2019-03-15T20:13:07.939Z,1.30
2019-03-15T20:16:13.207Z,1.77
2019-03-15T20:19:18.461Z,1.27
2019-03-15T20:22:23.703Z,3.13
2019-03-15T20:25:28.808Z,5.40
2019-03-15T20:28:34.037Z,4.57
2019-03-15T20:31:39.268Z,2.00
2019-03-15T20:34:44.478Z,0.77
2019-03-15T20:37:49.567Z,0.63
2019-03-15T20:40:54.829Z,1.27
2019-03-15T20:44:00.618Z,1.03
2019-03-15T20:47:05.898Z,1.37
2019-03-15T20:50:12.144Z,2.30
2019-03-15T20:53:17.301Z,2.30
2019-03-15T20:56:22.381Z,0.90
2019-03-15T20:59:27.650Z,0.40
2019-03-15T21:02:32.765Z,0.60
2019-03-15T21:05:37.987Z,0.97
2019-03-15T21:08:43.145Z,0.73
2019-03-15T21:11:48.308Z,0.47
2019-03-15T21:14:53.559Z,2.83
2019-03-15T21:17:58.840Z,0.60
2019-03-15T21:21:03.940Z,2.67
2019-03-15T21:24:09.188Z,0.60
2019-03-15T21:27:14.306Z,4.50
2019-03-15T21:30:19.479Z,1.17
2019-03-15T21:33:24.580Z,1.50
2019-03-15T21:36:29.751Z,1.47
2019-03-15T21:39:35.028Z,2.43
2019-03-15T21:42:40.254Z,0.77
2019-03-15T21:45:45.478Z,0.50
2019-03-15T21:48:50.648Z,1.37
2019-03-15T21:51:55.885Z,0.33
2019-03-15T21:55:01.450Z,1.00
2019-03-15T21:58:06.659Z,3.70
2019-03-15T22:01:11.822Z,0.40
2019-03-15T22:04:17.106Z,0.40
2019-03-15T22:07:22.290Z,0.70
2019-03-15T22:10:27.556Z,0.77
2019-03-15T22:13:32.706Z,0.60
2019-03-15T22:16:38.907Z,1.53
2019-03-15T22:19:44.118Z,0.60
2019-03-15T22:22:49.334Z,0.63
2019-03-15T22:25:54.477Z,0.40
2019-03-15T22:28:59.724Z,0.57
2019-03-15T22:32:04.886Z,0.50
2019-03-15T22:35:10.128Z,0.73
2019-03-15T22:38:25.722Z,2.07
2019-03-15T22:41:22.352Z,2.93
2019-03-15T22:44:27.523Z,4.77
2019-03-15T22:47:32.649Z,1.33
2019-03-15T22:50:37.763Z,0.60
2019-03-15T22:53:42.852Z,0.63
2019-03-15T22:56:49.114Z,0.80
2019-03-15T22:59:54.238Z,3.33
2019-03-15T23:02:59.506Z,1.53
2019-03-15T23:06:04.625Z,1.00
2019-03-15T23:09:09.771Z,2.00
2019-03-15T23:12:14.931Z,0.63
2019-03-15T23:15:20.237Z,2.10
2019-03-15T23:18:25.383Z,3.07
2019-03-15T23:21:30.567Z,1.60
2019-03-15T23:24:35.687Z,1.60
2019-03-15T23:27:40.863Z,0.40
2019-03-15T23:30:45.969Z,0.50
2019-03-15T23:33:51.182Z,0.47
2019-03-15T23:36:56.290Z,0.20
2019-03-15T23:40:01.495Z,1.50
2019-03-15T23:43:06.653Z,0.30
2019-03-15T23:46:11.755Z,0.77
2019-03-15T23:49:16.890Z,0.30
2019-03-15T23:52:22.018Z,0.50
2019-03-15T23:55:27.161Z,0.50
2019-03-15T23:58:32.875Z,0.53
